sensor_id;sensor_type;location;lat;lon;timestamp;P1;durP1;ratioP1;P2;durP2;ratioP2
6089;SDS011;3073;42.660;23.316;2022-09-20T00:01:21;2.10;;;1.90;;
6089;SDS011;3073;42.660;23.316;2022-09-20T00:03:50;1.67;;;1.57;;
6089;SDS011;3073;42.660;23.316;2022-09-20T00:06:20;2.27;;;2.00;;
6089;SDS011;3073;42.660;23.316;2022-09-20T00:08:48;2.90;;;2.20;;
6089;SDS011;3073;42.660;23.316;2022-09-20T00:11:16;2.70;;;1.87;;
6089;SDS011;3073;42.660;23.316;2022-09-20T00:13:46;2.03;;;1.83;;
6089;SDS011;3073;42.660;23.316;2022-09-20T00:16:15;2.00;;;1.70;;
6089;SDS011;3073;42.660;23.316;2022-09-20T00:18:46;2.07;;;1.80;;
6089;SDS011;3073;42.660;23.316;2022-09-20T00:21:14;1.80;;;1.70;;
6089;SDS011;3073;42.660;23.316;2022-09-20T00:23:42;3.00;;;1.80;;
6089;SDS011;3073;42.660;23.316;2022-09-20T00:26:09;2.77;;;1.83;;
6089;SDS011;3073;42.660;23.316;2022-09-20T00:28:37;1.70;;;1.60;;
6089;SDS011;3073;42.660;23.316;2022-09-20T00:31:05;1.93;;;1.53;;
6089;SDS011;3073;42.660;23.316;2022-09-20T00:33:33;2.10;;;1.70;;
6089;SDS011;3073;42.660;23.316;2022-09-20T00:36:17;1.80;;;1.70;;
6089;SDS011;3073;42.660;23.316;2022-09-20T00:38:44;2.97;;;1.93;;
6089;SDS011;3073;42.660;23.316;2022-09-20T00:41:11;2.10;;;1.47;;
6089;SDS011;3073;42.660;23.316;2022-09-20T00:43:39;1.70;;;1.60;;
6089;SDS011;3073;42.660;23.316;2022-09-20T00:46:13;1.63;;;1.53;;
6089;SDS011;3073;42.660;23.316;2022-09-20T00:48:48;2.00;;;1.60;;
6089;SDS011;3073;42.660;23.316;2022-09-20T00:51:20;1.50;;;1.27;;
6089;SDS011;3073;42.660;23.316;2022-09-20T00:53:53;1.50;;;1.20;;
6089;SDS011;3073;42.660;23.316;2022-09-20T00:56:23;1.67;;;1.53;;
6089;SDS011;3073;42.660;23.316;2022-09-20T00:58:53;1.93;;;1.73;;
6089;SDS011;3073;42.660;23.316;2022-09-20T01:01:29;2.00;;;1.73;;
6089;SDS011;3073;42.660;23.316;2022-09-20T01:03:56;1.50;;;1.33;;
6089;SDS011;3073;42.660;23.316;2022-09-20T01:06:24;1.40;;;1.20;;
6089;SDS011;3073;42.660;23.316;2022-09-20T01:08:52;1.70;;;1.60;;
6089;SDS011;3073;42.660;23.316;2022-09-20T01:11:23;2.80;;;1.47;;
6089;SDS011;3073;42.660;23.316;2022-09-20T01:13:50;1.50;;;1.27;;
6089;SDS011;3073;42.660;23.316;2022-09-20T01:16:17;1.90;;;1.70;;
6089;SDS011;3073;42.660;23.316;2022-09-20T01:18:47;1.90;;;1.40;;
6089;SDS011;3073;42.660;23.316;2022-09-20T01:21:16;1.50;;;1.30;;
6089;SDS011;3073;42.660;23.316;2022-09-20T01:23:45;1.50;;;1.30;;
6089;SDS011;3073;42.660;23.316;2022-09-20T01:29:20;2.13;;;1.60;;
6089;SDS011;3073;42.660;23.316;2022-09-20T01:32:00;1.67;;;1.57;;
6089;SDS011;3073;42.660;23.316;2022-09-20T01:34:30;1.90;;;1.40;;
6089;SDS011;3073;42.660;23.316;2022-09-20T01:37:02;1.80;;;1.70;;
6089;SDS011;3073;42.660;23.316;2022-09-20T01:39:38;1.83;;;1.33;;
6089;SDS011;3073;42.660;23.316;2022-09-20T01:42:16;1.83;;;1.70;;
6089;SDS011;3073;42.660;23.316;2022-09-20T01:44:47;2.67;;;1.63;;
6089;SDS011;3073;42.660;23.316;2022-09-20T01:47:24;1.47;;;1.20;;
6089;SDS011;3073;42.660;23.316;2022-09-20T01:50:02;5.33;;;2.00;;
6089;SDS011;3073;42.660;23.316;2022-09-20T01:53:02;1.73;;;1.63;;
6089;SDS011;3073;42.660;23.316;2022-09-20T02:01:44;1.87;;;1.70;;
6089;SDS011;3073;42.660;23.316;2022-09-20T02:07:48;1.97;;;1.77;;
6089;SDS011;3073;42.660;23.316;2022-09-20T02:10:34;2.27;;;2.07;;
6089;SDS011;3073;42.660;23.316;2022-09-20T02:13:08;2.27;;;1.97;;
6089;SDS011;3073;42.660;23.316;2022-09-20T02:15:46;1.80;;;1.70;;
6089;SDS011;3073;42.660;23.316;2022-09-20T02:18:35;1.80;;;1.70;;
6089;SDS011;3073;42.660;23.316;2022-09-20T02:21:14;2.03;;;1.83;;
6089;SDS011;3073;42.660;23.316;2022-09-20T02:23:55;1.63;;;1.53;;
6089;SDS011;3073;42.660;23.316;2022-09-20T02:26:35;2.10;;;1.90;;
6089;SDS011;3073;42.660;23.316;2022-09-20T02:29:13;1.80;;;1.70;;
6089;SDS011;3073;42.660;23.316;2022-09-20T02:35:00;2.10;;;1.90;;
6089;SDS011;3073;42.660;23.316;2022-09-20T02:41:03;2.00;;;1.80;;
6089;SDS011;3073;42.660;23.316;2022-09-20T02:43:45;2.30;;;2.10;;
6089;SDS011;3073;42.660;23.316;2022-09-20T02:46:21;2.70;;;2.10;;
6089;SDS011;3073;42.660;23.316;2022-09-20T02:48:54;2.10;;;1.90;;
6089;SDS011;3073;42.660;23.316;2022-09-20T02:51:33;2.40;;;2.20;;
6089;SDS011;3073;42.660;23.316;2022-09-20T02:54:07;6.40;;;2.67;;
6089;SDS011;3073;42.660;23.316;2022-09-20T02:56:44;2.97;;;2.50;;
6089;SDS011;3073;42.660;23.316;2022-09-20T02:59:19;2.90;;;2.30;;
6089;SDS011;3073;42.660;23.316;2022-09-20T03:01:56;3.50;;;2.57;;
6089;SDS011;3073;42.660;23.316;2022-09-20T03:04:33;2.90;;;2.70;;
6089;SDS011;3073;42.660;23.316;2022-09-20T03:07:11;2.77;;;2.40;;
6089;SDS011;3073;42.660;23.316;2022-09-20T03:09:50;3.20;;;2.70;;
6089;SDS011;3073;42.660;23.316;2022-09-20T03:12:28;2.50;;;2.30;;
6089;SDS011;3073;42.660;23.316;2022-09-20T03:15:07;2.60;;;2.40;;
6089;SDS011;3073;42.660;23.316;2022-09-20T03:17:46;2.47;;;2.27;;
6089;SDS011;3073;42.660;23.316;2022-09-20T03:20:23;3.70;;;2.60;;
6089;SDS011;3073;42.660;23.316;2022-09-20T03:22:59;2.37;;;2.17;;
6089;SDS011;3073;42.660;23.316;2022-09-20T03:25:38;3.40;;;1.90;;
6089;SDS011;3073;42.660;23.316;2022-09-20T03:28:21;2.20;;;2.00;;
6089;SDS011;3073;42.660;23.316;2022-09-20T03:30:59;2.27;;;1.83;;
6089;SDS011;3073;42.660;23.316;2022-09-20T03:33:38;2.90;;;2.70;;
6089;SDS011;3073;42.660;23.316;2022-09-20T03:36:17;2.27;;;1.87;;
6089;SDS011;3073;42.660;23.316;2022-09-20T03:39:01;2.13;;;1.93;;
6089;SDS011;3073;42.660;23.316;2022-09-20T03:41:53;3.00;;;2.30;;
6089;SDS011;3073;42.660;23.316;2022-09-20T03:44:44;6.03;;;2.60;;
6089;SDS011;3073;42.660;23.316;2022-09-20T03:47:26;1.87;;;1.67;;
6089;SDS011;3073;42.660;23.316;2022-09-20T03:50:19;3.73;;;2.30;;
6089;SDS011;3073;42.660;23.316;2022-09-20T03:53:04;2.13;;;1.93;;
6089;SDS011;3073;42.660;23.316;2022-09-20T03:58:46;2.50;;;1.90;;
6089;SDS011;3073;42.660;23.316;2022-09-20T04:01:39;2.97;;;2.30;;
6089;SDS011;3073;42.660;23.316;2022-09-20T04:04:21;2.73;;;1.80;;
6089;SDS011;3073;42.660;23.316;2022-09-20T04:07:00;4.33;;;1.90;;
6089;SDS011;3073;42.660;23.316;2022-09-20T04:12:34;2.60;;;2.13;;
6089;SDS011;3073;42.660;23.316;2022-09-20T04:15:15;2.43;;;2.20;;
6089;SDS011;3073;42.660;23.316;2022-09-20T04:17:54;2.60;;;2.40;;
6089;SDS011;3073;42.660;23.316;2022-09-20T04:20:29;4.57;;;2.00;;
6089;SDS011;3073;42.660;23.316;2022-09-20T04:23:07;3.30;;;2.40;;
6089;SDS011;3073;42.660;23.316;2022-09-20T04:25:41;2.63;;;2.20;;
6089;SDS011;3073;42.660;23.316;2022-09-20T04:28:15;2.10;;;1.90;;
6089;SDS011;3073;42.660;23.316;2022-09-20T04:30:46;2.17;;;1.70;;
6089;SDS011;3073;42.660;23.316;2022-09-20T04:33:22;5.63;;;2.10;;
6089;SDS011;3073;42.660;23.316;2022-09-20T04:35:54;4.43;;;1.90;;
6089;SDS011;3073;42.660;23.316;2022-09-20T04:38:47;3.10;;;2.37;;
6089;SDS011;3073;42.660;23.316;2022-09-20T04:41:32;2.20;;;1.77;;
6089;SDS011;3073;42.660;23.316;2022-09-20T04:48:21;5.50;;;3.00;;
6089;SDS011;3073;42.660;23.316;2022-09-20T04:51:25;3.27;;;1.90;;
6089;SDS011;3073;42.660;23.316;2022-09-20T04:57:14;2.00;;;1.80;;
6089;SDS011;3073;42.660;23.316;2022-09-20T05:00:01;2.50;;;2.30;;
6089;SDS011;3073;42.660;23.316;2022-09-20T05:02:38;4.17;;;2.07;;
6089;SDS011;3073;42.660;23.316;2022-09-20T05:05:31;4.17;;;2.90;;
6089;SDS011;3073;42.660;23.316;2022-09-20T05:14:21;2.50;;;1.90;;
6089;SDS011;3073;42.660;23.316;2022-09-20T05:16:59;2.33;;;1.70;;
6089;SDS011;3073;42.660;23.316;2022-09-20T05:19:43;2.83;;;1.83;;
6089;SDS011;3073;42.660;23.316;2022-09-20T05:22:33;3.10;;;1.97;;
6089;SDS011;3073;42.660;23.316;2022-09-20T05:25:34;4.17;;;2.10;;
6089;SDS011;3073;42.660;23.316;2022-09-20T05:28:14;1.73;;;1.40;;
6089;SDS011;3073;42.660;23.316;2022-09-20T05:30:48;2.53;;;2.00;;
6089;SDS011;3073;42.660;23.316;2022-09-20T05:33:19;3.30;;;1.60;;
6089;SDS011;3073;42.660;23.316;2022-09-20T05:35:54;2.43;;;2.00;;
6089;SDS011;3073;42.660;23.316;2022-09-20T05:38:32;1.77;;;1.60;;
6089;SDS011;3073;42.660;23.316;2022-09-20T05:41:10;5.20;;;1.60;;
6089;SDS011;3073;42.660;23.316;2022-09-20T05:43:47;2.40;;;1.73;;
6089;SDS011;3073;42.660;23.316;2022-09-20T05:46:29;3.87;;;1.60;;
6089;SDS011;3073;42.660;23.316;2022-09-20T05:49:03;2.40;;;2.00;;
6089;SDS011;3073;42.660;23.316;2022-09-20T05:54:54;5.53;;;3.17;;
6089;SDS011;3073;42.660;23.316;2022-09-20T05:57:37;2.70;;;2.20;;
6089;SDS011;3073;42.660;23.316;2022-09-20T06:00:13;4.10;;;1.90;;
6089;SDS011;3073;42.660;23.316;2022-09-20T06:02:46;2.00;;;1.40;;
6089;SDS011;3073;42.660;23.316;2022-09-20T06:05:28;1.70;;;1.60;;
6089;SDS011;3073;42.660;23.316;2022-09-20T06:08:10;1.73;;;1.33;;
6089;SDS011;3073;42.660;23.316;2022-09-20T06:13:59;2.80;;;1.60;;
6089;SDS011;3073;42.660;23.316;2022-09-20T06:16:42;6.53;;;1.60;;
6089;SDS011;3073;42.660;23.316;2022-09-20T06:19:17;2.13;;;1.70;;
6089;SDS011;3073;42.660;23.316;2022-09-20T06:21:51;1.80;;;1.47;;
6089;SDS011;3073;42.660;23.316;2022-09-20T06:24:28;2.47;;;1.27;;
6089;SDS011;3073;42.660;23.316;2022-09-20T06:27:03;1.40;;;1.30;;
6089;SDS011;3073;42.660;23.316;2022-09-20T06:29:34;1.50;;;1.23;;
6089;SDS011;3073;42.660;23.316;2022-09-20T06:32:05;1.90;;;1.23;;
6089;SDS011;3073;42.660;23.316;2022-09-20T06:34:32;1.43;;;1.20;;
6089;SDS011;3073;42.660;23.316;2022-09-20T06:37:01;2.80;;;1.53;;
6089;SDS011;3073;42.660;23.316;2022-09-20T06:39:58;4.80;;;1.60;;
6089;SDS011;3073;42.660;23.316;2022-09-20T06:42:50;1.73;;;1.10;;
6089;SDS011;3073;42.660;23.316;2022-09-20T06:45:19;1.40;;;1.23;;
6089;SDS011;3073;42.660;23.316;2022-09-20T06:47:45;4.20;;;1.43;;
6089;SDS011;3073;42.660;23.316;2022-09-20T06:50:13;2.77;;;1.53;;
6089;SDS011;3073;42.660;23.316;2022-09-20T06:52:42;4.20;;;1.63;;
6089;SDS011;3073;42.660;23.316;2022-09-20T06:55:14;11.00;;;1.47;;
6089;SDS011;3073;42.660;23.316;2022-09-20T06:57:46;2.47;;;1.30;;
6089;SDS011;3073;42.660;23.316;2022-09-20T07:00:14;2.17;;;1.33;;
6089;SDS011;3073;42.660;23.316;2022-09-20T07:02:41;2.17;;;1.43;;
6089;SDS011;3073;42.660;23.316;2022-09-20T07:05:12;2.33;;;1.40;;
6089;SDS011;3073;42.660;23.316;2022-09-20T07:07:39;2.10;;;1.40;;
6089;SDS011;3073;42.660;23.316;2022-09-20T07:10:08;1.40;;;1.10;;
6089;SDS011;3073;42.660;23.316;2022-09-20T07:12:37;1.30;;;1.00;;
6089;SDS011;3073;42.660;23.316;2022-09-20T07:15:04;3.60;;;1.40;;
6089;SDS011;3073;42.660;23.316;2022-09-20T07:17:32;1.60;;;1.07;;
6089;SDS011;3073;42.660;23.316;2022-09-20T07:19:59;1.40;;;0.80;;
6089;SDS011;3073;42.660;23.316;2022-09-20T07:22:26;2.33;;;1.03;;
6089;SDS011;3073;42.660;23.316;2022-09-20T07:24:53;2.20;;;1.20;;
6089;SDS011;3073;42.660;23.316;2022-09-20T07:27:19;2.00;;;1.17;;
6089;SDS011;3073;42.660;23.316;2022-09-20T07:29:48;2.83;;;0.97;;
6089;SDS011;3073;42.660;23.316;2022-09-20T07:32:14;1.30;;;1.10;;
6089;SDS011;3073;42.660;23.316;2022-09-20T07:34:42;1.97;;;1.20;;
6089;SDS011;3073;42.660;23.316;2022-09-20T07:37:08;1.70;;;1.20;;
6089;SDS011;3073;42.660;23.316;2022-09-20T07:39:35;2.37;;;1.20;;
6089;SDS011;3073;42.660;23.316;2022-09-20T07:42:02;2.20;;;1.00;;
6089;SDS011;3073;42.660;23.316;2022-09-20T07:44:31;2.13;;;1.40;;
6089;SDS011;3073;42.660;23.316;2022-09-20T07:46:59;1.80;;;1.23;;
6089;SDS011;3073;42.660;23.316;2022-09-20T07:49:27;1.70;;;1.10;;
6089;SDS011;3073;42.660;23.316;2022-09-20T07:51:55;3.20;;;1.97;;
6089;SDS011;3073;42.660;23.316;2022-09-20T07:54:22;2.63;;;1.50;;
6089;SDS011;3073;42.660;23.316;2022-09-20T07:56:51;2.47;;;1.10;;
6089;SDS011;3073;42.660;23.316;2022-09-20T07:59:18;2.17;;;1.60;;
6089;SDS011;3073;42.660;23.316;2022-09-20T08:01:45;4.13;;;1.37;;
6089;SDS011;3073;42.660;23.316;2022-09-20T08:04:14;3.13;;;1.73;;
6089;SDS011;3073;42.660;23.316;2022-09-20T08:06:41;2.43;;;1.30;;
6089;SDS011;3073;42.660;23.316;2022-09-20T08:09:10;2.10;;;1.00;;
6089;SDS011;3073;42.660;23.316;2022-09-20T08:11:37;2.37;;;0.90;;
6089;SDS011;3073;42.660;23.316;2022-09-20T08:14:05;1.60;;;1.00;;
6089;SDS011;3073;42.660;23.316;2022-09-20T08:16:36;1.50;;;1.00;;
6089;SDS011;3073;42.660;23.316;2022-09-20T08:19:04;1.93;;;0.90;;
6089;SDS011;3073;42.660;23.316;2022-09-20T08:21:33;2.37;;;1.37;;
6089;SDS011;3073;42.660;23.316;2022-09-20T08:24:02;2.33;;;1.30;;
6089;SDS011;3073;42.660;23.316;2022-09-20T08:26:29;1.50;;;1.00;;
6089;SDS011;3073;42.660;23.316;2022-09-20T08:28:56;1.70;;;0.93;;
6089;SDS011;3073;42.660;23.316;2022-09-20T08:31:27;1.10;;;0.80;;
6089;SDS011;3073;42.660;23.316;2022-09-20T08:34:01;2.20;;;0.80;;
6089;SDS011;3073;42.660;23.316;2022-09-20T08:36:29;3.20;;;0.90;;
6089;SDS011;3073;42.660;23.316;2022-09-20T08:38:58;1.70;;;0.90;;
6089;SDS011;3073;42.660;23.316;2022-09-20T08:41:26;1.27;;;0.90;;
6089;SDS011;3073;42.660;23.316;2022-09-20T08:43:57;6.30;;;1.20;;
6089;SDS011;3073;42.660;23.316;2022-09-20T08:46:29;2.80;;;0.93;;
6089;SDS011;3073;42.660;23.316;2022-09-20T08:49:02;1.60;;;1.20;;
6089;SDS011;3073;42.660;23.316;2022-09-20T08:51:34;1.40;;;0.80;;
6089;SDS011;3073;42.660;23.316;2022-09-20T08:54:06;1.80;;;1.10;;
6089;SDS011;3073;42.660;23.316;2022-09-20T08:56:38;1.30;;;0.70;;
6089;SDS011;3073;42.660;23.316;2022-09-20T08:59:05;1.20;;;0.77;;
6089;SDS011;3073;42.660;23.316;2022-09-20T09:01:39;4.27;;;0.90;;
6089;SDS011;3073;42.660;23.316;2022-09-20T09:04:10;1.30;;;0.80;;
6089;SDS011;3073;42.660;23.316;2022-09-20T09:06:39;3.13;;;0.90;;
6089;SDS011;3073;42.660;23.316;2022-09-20T09:09:10;2.87;;;1.10;;
6089;SDS011;3073;42.660;23.316;2022-09-20T09:11:43;1.70;;;0.97;;
6089;SDS011;3073;42.660;23.316;2022-09-20T09:14:12;3.47;;;0.70;;
6089;SDS011;3073;42.660;23.316;2022-09-20T09:16:59;1.20;;;0.70;;
6089;SDS011;3073;42.660;23.316;2022-09-20T09:19:28;2.33;;;0.80;;
6089;SDS011;3073;42.660;23.316;2022-09-20T09:21:57;1.80;;;0.83;;
6089;SDS011;3073;42.660;23.316;2022-09-20T09:24:28;1.23;;;0.73;;
6089;SDS011;3073;42.660;23.316;2022-09-20T09:27:04;1.10;;;0.60;;
6089;SDS011;3073;42.660;23.316;2022-09-20T09:29:32;2.10;;;0.93;;
6089;SDS011;3073;42.660;23.316;2022-09-20T09:32:13;2.40;;;1.37;;
6089;SDS011;3073;42.660;23.316;2022-09-20T09:34:46;3.87;;;1.07;;
6089;SDS011;3073;42.660;23.316;2022-09-20T09:37:20;1.80;;;1.10;;
6089;SDS011;3073;42.660;23.316;2022-09-20T09:40:05;7.20;;;1.77;;
6089;SDS011;3073;42.660;23.316;2022-09-20T09:42:46;1.30;;;0.90;;
6089;SDS011;3073;42.660;23.316;2022-09-20T09:45:23;2.60;;;0.90;;
6089;SDS011;3073;42.660;23.316;2022-09-20T09:47:52;1.90;;;1.30;;
6089;SDS011;3073;42.660;23.316;2022-09-20T09:50:23;3.80;;;1.70;;
6089;SDS011;3073;42.660;23.316;2022-09-20T09:52:59;1.97;;;1.00;;
6089;SDS011;3073;42.660;23.316;2022-09-20T09:55:33;2.77;;;1.27;;
6089;SDS011;3073;42.660;23.316;2022-09-20T09:58:18;1.70;;;1.00;;
6089;SDS011;3073;42.660;23.316;2022-09-20T10:00:55;16.77;;;1.10;;
6089;SDS011;3073;42.660;23.316;2022-09-20T10:03:44;1.47;;;0.73;;
6089;SDS011;3073;42.660;23.316;2022-09-20T10:06:21;1.20;;;0.60;;
6089;SDS011;3073;42.660;23.316;2022-09-20T10:08:57;1.40;;;0.80;;
6089;SDS011;3073;42.660;23.316;2022-09-20T10:11:37;2.30;;;0.70;;
6089;SDS011;3073;42.660;23.316;2022-09-20T10:14:23;1.40;;;0.80;;
6089;SDS011;3073;42.660;23.316;2022-09-20T10:17:06;1.37;;;0.87;;
6089;SDS011;3073;42.660;23.316;2022-09-20T10:19:54;1.93;;;0.77;;
6089;SDS011;3073;42.660;23.316;2022-09-20T10:22:33;2.17;;;1.10;;
6089;SDS011;3073;42.660;23.316;2022-09-20T10:25:15;1.20;;;0.70;;
6089;SDS011;3073;42.660;23.316;2022-09-20T10:27:55;1.20;;;0.70;;
6089;SDS011;3073;42.660;23.316;2022-09-20T10:30:35;2.07;;;1.00;;
6089;SDS011;3073;42.660;23.316;2022-09-20T10:33:14;4.00;;;0.90;;
6089;SDS011;3073;42.660;23.316;2022-09-20T10:35:53;2.50;;;0.90;;
6089;SDS011;3073;42.660;23.316;2022-09-20T10:38:29;1.67;;;0.80;;
6089;SDS011;3073;42.660;23.316;2022-09-20T10:41:03;1.20;;;0.90;;
6089;SDS011;3073;42.660;23.316;2022-09-20T10:46:57;1.30;;;0.80;;
6089;SDS011;3073;42.660;23.316;2022-09-20T10:49:32;1.30;;;0.90;;
6089;SDS011;3073;42.660;23.316;2022-09-20T10:52:05;1.60;;;1.10;;
6089;SDS011;3073;42.660;23.316;2022-09-20T10:54:46;2.03;;;1.00;;
6089;SDS011;3073;42.660;23.316;2022-09-20T10:57:30;1.20;;;0.90;;
6089;SDS011;3073;42.660;23.316;2022-09-20T11:00:22;1.37;;;1.10;;
6089;SDS011;3073;42.660;23.316;2022-09-20T11:02:59;1.90;;;1.27;;
6089;SDS011;3073;42.660;23.316;2022-09-20T11:05:42;1.50;;;1.20;;
6089;SDS011;3073;42.660;23.316;2022-09-20T11:08:19;2.13;;;1.27;;
6089;SDS011;3073;42.660;23.316;2022-09-20T11:10:52;2.63;;;1.07;;
6089;SDS011;3073;42.660;23.316;2022-09-20T11:13:24;1.60;;;1.30;;
6089;SDS011;3073;42.660;23.316;2022-09-20T11:15:59;1.30;;;1.00;;
6089;SDS011;3073;42.660;23.316;2022-09-20T11:18:34;1.97;;;1.20;;
6089;SDS011;3073;42.660;23.316;2022-09-20T11:21:05;1.37;;;1.20;;
6089;SDS011;3073;42.660;23.316;2022-09-20T11:23:41;2.90;;;1.10;;
6089;SDS011;3073;42.660;23.316;2022-09-20T11:26:15;2.07;;;1.00;;
6089;SDS011;3073;42.660;23.316;2022-09-20T11:28:49;1.43;;;1.00;;
6089;SDS011;3073;42.660;23.316;2022-09-20T11:31:23;1.40;;;1.17;;
6089;SDS011;3073;42.660;23.316;2022-09-20T11:33:55;1.30;;;1.20;;
6089;SDS011;3073;42.660;23.316;2022-09-20T11:36:28;1.50;;;1.17;;
6089;SDS011;3073;42.660;23.316;2022-09-20T11:39:04;1.20;;;1.00;;
6089;SDS011;3073;42.660;23.316;2022-09-20T11:41:39;1.40;;;1.10;;
6089;SDS011;3073;42.660;23.316;2022-09-20T11:44:09;1.67;;;1.10;;
6089;SDS011;3073;42.660;23.316;2022-09-20T11:46:42;1.60;;;0.80;;
6089;SDS011;3073;42.660;23.316;2022-09-20T11:49:17;1.40;;;0.90;;
6089;SDS011;3073;42.660;23.316;2022-09-20T11:57:44;1.40;;;1.00;;
6089;SDS011;3073;42.660;23.316;2022-09-20T12:00:11;3.33;;;0.87;;
6089;SDS011;3073;42.660;23.316;2022-09-20T12:02:42;1.20;;;0.73;;
6089;SDS011;3073;42.660;23.316;2022-09-20T12:05:23;1.40;;;0.90;;
6089;SDS011;3073;42.660;23.316;2022-09-20T12:07:52;1.50;;;1.30;;
6089;SDS011;3073;42.660;23.316;2022-09-20T12:10:21;6.23;;;1.40;;
6089;SDS011;3073;42.660;23.316;2022-09-20T12:12:54;1.30;;;0.80;;
6089;SDS011;3073;42.660;23.316;2022-09-20T12:15:25;1.40;;;0.80;;
6089;SDS011;3073;42.660;23.316;2022-09-20T12:51:52;2.03;;;1.17;;
6089;SDS011;3073;42.660;23.316;2022-09-20T12:54:47;7.53;;;1.07;;
6089;SDS011;3073;42.660;23.316;2022-09-20T12:57:17;6.00;;;1.00;;
6089;SDS011;3073;42.660;23.316;2022-09-20T12:59:53;2.90;;;1.20;;
6089;SDS011;3073;42.660;23.316;2022-09-20T13:05:31;3.87;;;1.40;;
6089;SDS011;3073;42.660;23.316;2022-09-20T13:08:02;1.60;;;1.30;;
6089;SDS011;3073;42.660;23.316;2022-09-20T13:10:39;1.83;;;1.30;;
6089;SDS011;3073;42.660;23.316;2022-09-20T13:13:12;2.33;;;1.43;;
6089;SDS011;3073;42.660;23.316;2022-09-20T13:15:48;1.90;;;1.20;;
6089;SDS011;3073;42.660;23.316;2022-09-20T13:18:17;3.20;;;1.37;;
6089;SDS011;3073;42.660;23.316;2022-09-20T13:20:46;1.40;;;1.20;;
6089;SDS011;3073;42.660;23.316;2022-09-20T13:23:18;2.07;;;1.00;;
6089;SDS011;3073;42.660;23.316;2022-09-20T13:25:49;2.43;;;1.43;;
6089;SDS011;3073;42.660;23.316;2022-09-20T13:28:19;4.50;;;2.20;;
6089;SDS011;3073;42.660;23.316;2022-09-20T13:31:20;1.80;;;1.27;;
6089;SDS011;3073;42.660;23.316;2022-09-20T13:33:52;1.67;;;1.10;;
6089;SDS011;3073;42.660;23.316;2022-09-20T13:36:22;2.20;;;1.20;;
6089;SDS011;3073;42.660;23.316;2022-09-20T13:38:55;2.67;;;1.07;;
6089;SDS011;3073;42.660;23.316;2022-09-20T13:41:25;1.40;;;0.83;;
6089;SDS011;3073;42.660;23.316;2022-09-20T13:43:56;2.17;;;1.00;;
6089;SDS011;3073;42.660;23.316;2022-09-20T13:46:27;1.63;;;1.20;;
6089;SDS011;3073;42.660;23.316;2022-09-20T13:48:57;1.73;;;1.40;;
6089;SDS011;3073;42.660;23.316;2022-09-20T13:51:45;2.40;;;1.10;;
6089;SDS011;3073;42.660;23.316;2022-09-20T13:54:18;2.90;;;1.13;;
6089;SDS011;3073;42.660;23.316;2022-09-20T13:56:49;2.90;;;1.10;;
6089;SDS011;3073;42.660;23.316;2022-09-20T13:59:17;4.10;;;1.63;;
6089;SDS011;3073;42.660;23.316;2022-09-20T14:01:47;2.67;;;0.87;;
6089;SDS011;3073;42.660;23.316;2022-09-20T14:04:17;4.80;;;1.30;;
6089;SDS011;3073;42.660;23.316;2022-09-20T14:06:47;1.77;;;1.17;;
6089;SDS011;3073;42.660;23.316;2022-09-20T14:09:20;1.40;;;1.00;;
6089;SDS011;3073;42.660;23.316;2022-09-20T14:11:54;1.80;;;1.10;;
6089;SDS011;3073;42.660;23.316;2022-09-20T14:14:22;3.00;;;0.90;;
6089;SDS011;3073;42.660;23.316;2022-09-20T14:16:49;2.27;;;1.37;;
6089;SDS011;3073;42.660;23.316;2022-09-20T14:19:18;1.60;;;1.20;;
6089;SDS011;3073;42.660;23.316;2022-09-20T14:21:48;4.60;;;2.10;;
6089;SDS011;3073;42.660;23.316;2022-09-20T14:24:25;1.90;;;1.17;;
6089;SDS011;3073;42.660;23.316;2022-09-20T14:29:45;4.50;;;1.13;;
6089;SDS011;3073;42.660;23.316;2022-09-20T14:35:14;2.80;;;1.80;;
6089;SDS011;3073;42.660;23.316;2022-09-20T14:37:46;1.77;;;1.30;;
6089;SDS011;3073;42.660;23.316;2022-09-20T14:40:18;1.30;;;0.87;;
6089;SDS011;3073;42.660;23.316;2022-09-20T14:42:54;2.30;;;0.97;;
6089;SDS011;3073;42.660;23.316;2022-09-20T14:45:28;10.50;;;3.87;;
6089;SDS011;3073;42.660;23.316;2022-09-20T14:47:58;12.53;;;5.17;;
6089;SDS011;3073;42.660;23.316;2022-09-20T14:50:29;12.50;;;5.47;;
6089;SDS011;3073;42.660;23.316;2022-09-20T14:52:58;11.40;;;3.40;;
6089;SDS011;3073;42.660;23.316;2022-09-20T14:55:28;3.63;;;2.20;;
6089;SDS011;3073;42.660;23.316;2022-09-20T14:57:58;3.10;;;1.30;;
6089;SDS011;3073;42.660;23.316;2022-09-20T15:00:27;2.37;;;1.57;;
6089;SDS011;3073;42.660;23.316;2022-09-20T15:02:55;3.90;;;2.30;;
6089;SDS011;3073;42.660;23.316;2022-09-20T15:05:30;16.63;;;2.60;;
6089;SDS011;3073;42.660;23.316;2022-09-20T15:07:58;1.30;;;0.80;;
6089;SDS011;3073;42.660;23.316;2022-09-20T15:10:26;2.90;;;1.10;;
6089;SDS011;3073;42.660;23.316;2022-09-20T15:12:54;1.90;;;1.00;;
6089;SDS011;3073;42.660;23.316;2022-09-20T15:15:21;2.67;;;1.30;;
6089;SDS011;3073;42.660;23.316;2022-09-20T15:17:48;1.37;;;0.87;;
6089;SDS011;3073;42.660;23.316;2022-09-20T15:20:16;6.60;;;2.40;;
6089;SDS011;3073;42.660;23.316;2022-09-20T15:22:45;1.50;;;1.30;;
6089;SDS011;3073;42.660;23.316;2022-09-20T15:25:14;2.63;;;1.77;;
6089;SDS011;3073;42.660;23.316;2022-09-20T15:27:44;1.90;;;0.97;;
6089;SDS011;3073;42.660;23.316;2022-09-20T15:30:12;1.70;;;1.03;;
6089;SDS011;3073;42.660;23.316;2022-09-20T15:32:41;2.70;;;1.50;;
6089;SDS011;3073;42.660;23.316;2022-09-20T15:35:09;2.70;;;1.10;;
6089;SDS011;3073;42.660;23.316;2022-09-20T15:37:36;2.43;;;1.23;;
6089;SDS011;3073;42.660;23.316;2022-09-20T15:40:03;3.20;;;1.30;;
6089;SDS011;3073;42.660;23.316;2022-09-20T15:42:32;5.30;;;1.60;;
6089;SDS011;3073;42.660;23.316;2022-09-20T15:45:06;2.57;;;1.20;;
6089;SDS011;3073;42.660;23.316;2022-09-20T15:47:35;3.63;;;1.50;;
6089;SDS011;3073;42.660;23.316;2022-09-20T15:50:03;2.00;;;1.50;;
6089;SDS011;3073;42.660;23.316;2022-09-20T15:52:34;3.80;;;1.50;;
6089;SDS011;3073;42.660;23.316;2022-09-20T15:55:04;2.63;;;1.53;;
6089;SDS011;3073;42.660;23.316;2022-09-20T15:57:32;4.40;;;1.20;;
6089;SDS011;3073;42.660;23.316;2022-09-20T15:59:59;3.60;;;1.63;;
6089;SDS011;3073;42.660;23.316;2022-09-20T16:02:28;3.10;;;1.60;;
6089;SDS011;3073;42.660;23.316;2022-09-20T16:04:55;3.67;;;1.57;;
6089;SDS011;3073;42.660;23.316;2022-09-20T16:07:23;2.03;;;1.40;;
6089;SDS011;3073;42.660;23.316;2022-09-20T16:09:51;2.57;;;1.50;;
6089;SDS011;3073;42.660;23.316;2022-09-20T16:12:18;2.70;;;1.63;;
6089;SDS011;3073;42.660;23.316;2022-09-20T16:14:45;3.53;;;1.57;;
6089;SDS011;3073;42.660;23.316;2022-09-20T16:17:12;1.90;;;1.40;;
6089;SDS011;3073;42.660;23.316;2022-09-20T16:19:41;2.47;;;1.70;;
6089;SDS011;3073;42.660;23.316;2022-09-20T16:22:08;2.67;;;1.50;;
6089;SDS011;3073;42.660;23.316;2022-09-20T16:24:36;3.23;;;1.97;;
6089;SDS011;3073;42.660;23.316;2022-09-20T16:27:04;4.30;;;1.60;;
6089;SDS011;3073;42.660;23.316;2022-09-20T16:29:32;2.23;;;1.80;;
6089;SDS011;3073;42.660;23.316;2022-09-20T16:31:59;2.77;;;2.03;;
6089;SDS011;3073;42.660;23.316;2022-09-20T16:34:30;2.53;;;1.83;;
6089;SDS011;3073;42.660;23.316;2022-09-20T16:37:00;9.80;;;1.93;;
6089;SDS011;3073;42.660;23.316;2022-09-20T16:39:30;5.77;;;2.07;;
6089;SDS011;3073;42.660;23.316;2022-09-20T16:41:58;2.53;;;1.83;;
6089;SDS011;3073;42.660;23.316;2022-09-20T16:44:29;5.47;;;1.77;;
6089;SDS011;3073;42.660;23.316;2022-09-20T16:46:57;3.27;;;1.83;;
6089;SDS011;3073;42.660;23.316;2022-09-20T16:49:24;5.77;;;1.83;;
6089;SDS011;3073;42.660;23.316;2022-09-20T16:51:54;2.93;;;1.60;;
6089;SDS011;3073;42.660;23.316;2022-09-20T16:54:25;3.17;;;2.03;;
6089;SDS011;3073;42.660;23.316;2022-09-20T16:56:52;4.07;;;2.27;;
6089;SDS011;3073;42.660;23.316;2022-09-20T16:59:19;3.30;;;2.00;;
6089;SDS011;3073;42.660;23.316;2022-09-20T17:01:47;2.27;;;2.07;;
6089;SDS011;3073;42.660;23.316;2022-09-20T17:04:16;3.17;;;1.87;;
6089;SDS011;3073;42.660;23.316;2022-09-20T17:06:45;3.80;;;2.40;;
6089;SDS011;3073;42.660;23.316;2022-09-20T17:09:13;2.67;;;2.47;;
6089;SDS011;3073;42.660;23.316;2022-09-20T17:11:43;3.77;;;2.20;;
6089;SDS011;3073;42.660;23.316;2022-09-20T17:14:12;5.93;;;2.20;;
6089;SDS011;3073;42.660;23.316;2022-09-20T17:16:40;2.67;;;2.10;;